createdAt,value
2023-04-30T00:00:12.748Z,88.10
2023-04-30T00:02:40.349Z,88.00
2023-04-30T00:05:08.498Z,87.70
2023-04-30T00:07:36.003Z,88.00
2023-04-30T00:10:05.349Z,87.80
2023-04-30T00:12:32.862Z,87.50
2023-04-30T00:15:01.390Z,86.20
2023-04-30T00:17:28.941Z,87.20
2023-04-30T00:19:56.679Z,87.20
2023-04-30T00:22:24.447Z,86.80
2023-04-30T00:24:52.005Z,86.50
2023-04-30T00:27:19.486Z,86.50
2023-04-30T00:29:47.026Z,86.30
2023-04-30T00:32:14.627Z,86.20
2023-04-30T00:34:42.647Z,86.70
2023-04-30T00:37:10.183Z,86.70
2023-04-30T00:39:37.784Z,87.00
2023-04-30T00:42:05.629Z,86.70
2023-04-30T00:44:33.477Z,86.50
2023-04-30T00:47:00.959Z,86.50
2023-04-30T00:49:28.604Z,86.20
2023-04-30T00:51:56.565Z,86.20
2023-04-30T00:54:25.273Z,86.00
2023-04-30T00:56:52.853Z,85.50
2023-04-30T00:59:20.932Z,85.50
2023-04-30T01:01:48.575Z,85.50
2023-04-30T01:04:16.473Z,85.30
2023-04-30T01:06:43.989Z,85.20
2023-04-30T01:09:11.647Z,85.70
2023-04-30T01:12:13.410Z,85.70
2023-04-30T01:15:32.543Z,85.70
2023-04-30T01:18:10.170Z,85.50
2023-04-30T01:20:47.997Z,85.70
2023-04-30T01:23:46.696Z,85.60
2023-04-30T01:26:35.588Z,85.60
2023-04-30T01:29:04.273Z,85.80
2023-04-30T01:31:31.864Z,85.70
2023-04-30T01:33:59.486Z,85.60
2023-04-30T01:37:05.860Z,85.70
2023-04-30T01:40:14.553Z,85.50
2023-04-30T01:42:49.993Z,85.70
2023-04-30T01:45:47.046Z,85.60
2023-04-30T01:49:00.570Z,85.70
2023-04-30T01:51:55.921Z,85.80
2023-04-30T01:54:38.547Z,86.40
2023-04-30T01:57:24.163Z,86.30
2023-04-30T01:59:52.802Z,86.50
2023-04-30T02:02:20.758Z,86.30
2023-04-30T02:04:48.342Z,86.20
2023-04-30T02:07:39.326Z,86.00
2023-04-30T02:10:08.714Z,86.20
2023-04-30T02:12:36.546Z,86.10
2023-04-30T02:15:06.067Z,85.80
2023-04-30T02:17:34.255Z,86.00
2023-04-30T02:20:02.095Z,85.80
2023-04-30T02:22:30.320Z,85.70
2023-04-30T02:24:57.861Z,85.80
2023-04-30T02:27:26.889Z,85.90
2023-04-30T02:29:54.700Z,86.30
2023-04-30T02:32:22.633Z,86.30
2023-04-30T02:34:50.435Z,86.40
2023-04-30T02:37:17.988Z,86.50
2023-04-30T02:39:45.515Z,86.60
2023-04-30T02:42:13.056Z,87.10
2023-04-30T02:44:41.093Z,86.90
2023-04-30T02:47:08.699Z,87.10
2023-04-30T02:49:36.430Z,87.00
2023-04-30T02:52:04.063Z,87.20
2023-04-30T02:54:31.663Z,87.50
2023-04-30T02:56:59.475Z,87.80
2023-04-30T02:59:27.223Z,87.70
2023-04-30T03:01:54.772Z,87.80
2023-04-30T03:04:22.366Z,87.90
2023-04-30T03:06:49.869Z,88.20
2023-04-30T03:09:17.902Z,88.00
2023-04-30T03:11:45.458Z,87.80
2023-04-30T03:14:13.019Z,87.30
2023-04-30T03:16:40.689Z,87.20
2023-04-30T03:19:08.351Z,87.10
2023-04-30T03:21:35.875Z,86.80
2023-04-30T03:24:03.455Z,86.60
2023-04-30T03:26:30.937Z,86.40
2023-04-30T03:28:58.552Z,86.90
2023-04-30T03:31:26.224Z,86.20
2023-04-30T03:33:53.818Z,87.30
2023-04-30T03:36:22.235Z,87.20
2023-04-30T03:38:49.760Z,87.30
2023-04-30T03:41:17.281Z,87.40
2023-04-30T03:43:44.853Z,87.50
2023-04-30T03:46:12.587Z,87.30
2023-04-30T03:48:40.239Z,87.90
2023-04-30T03:51:07.729Z,88.20
2023-04-30T03:53:35.340Z,88.40
2023-04-30T03:56:04.590Z,88.60
2023-04-30T03:58:32.626Z,89.00
2023-04-30T04:01:00.165Z,89.20
2023-04-30T04:03:27.834Z,89.30
2023-04-30T04:05:55.386Z,89.40
2023-04-30T04:08:23.254Z,89.40
2023-04-30T04:10:50.963Z,89.80
2023-04-30T04:13:18.647Z,90.00
2023-04-30T04:15:46.592Z,90.40
2023-04-30T04:18:14.123Z,90.20
2023-04-30T04:20:41.855Z,90.30
2023-04-30T04:23:09.374Z,90.50
2023-04-30T04:25:36.854Z,90.60
2023-04-30T04:28:04.658Z,90.60
2023-04-30T04:30:32.295Z,90.70
2023-04-30T04:33:00.447Z,90.60
2023-04-30T04:35:29.845Z,90.60
2023-04-30T04:37:57.814Z,90.60
2023-04-30T04:40:25.324Z,90.60
2023-04-30T04:42:53.049Z,90.40
2023-04-30T04:45:20.651Z,90.50
2023-04-30T04:47:49.325Z,90.80
2023-04-30T04:50:17.369Z,90.60
2023-04-30T04:52:45.133Z,90.60
2023-04-30T04:55:13.914Z,90.90
2023-04-30T04:57:42.481Z,91.30
2023-04-30T05:00:11.743Z,91.60
2023-04-30T05:02:39.307Z,91.80
2023-04-30T05:05:07.847Z,92.00
2023-04-30T05:07:35.409Z,92.00
2023-04-30T05:10:03.560Z,92.10
2023-04-30T05:12:31.338Z,92.60
2023-04-30T05:14:58.870Z,92.60
2023-04-30T05:17:26.398Z,92.50
2023-04-30T05:19:54.177Z,92.40
2023-04-30T05:22:21.859Z,92.10
2023-04-30T05:24:49.416Z,91.70
2023-04-30T05:27:17.048Z,91.30
2023-04-30T05:29:44.537Z,91.10
2023-04-30T05:32:12.112Z,90.90
2023-04-30T05:34:39.634Z,90.40
2023-04-30T05:37:07.113Z,90.20
2023-04-30T05:39:34.615Z,90.10
2023-04-30T05:42:03.081Z,90.30
2023-04-30T05:44:30.559Z,90.40
2023-04-30T05:46:58.074Z,90.30
2023-04-30T05:49:25.596Z,90.60
2023-04-30T05:51:53.105Z,90.70
2023-04-30T05:54:20.576Z,90.70
2023-04-30T05:56:48.424Z,90.40
2023-04-30T05:59:15.912Z,90.20
2023-04-30T06:01:43.448Z,89.60
2023-04-30T06:04:11.650Z,89.20
2023-04-30T06:06:39.284Z,88.70
2023-04-30T06:09:06.839Z,88.10
2023-04-30T06:11:34.996Z,87.80
2023-04-30T06:14:03.757Z,87.90
2023-04-30T06:16:31.596Z,87.60
2023-04-30T06:18:59.158Z,87.00
2023-04-30T06:21:26.722Z,87.10
2023-04-30T06:23:54.284Z,86.70
2023-04-30T06:26:21.813Z,86.30
2023-04-30T06:28:49.358Z,86.30
2023-04-30T06:31:16.909Z,85.60
2023-04-30T06:33:44.502Z,85.70
2023-04-30T06:36:12.207Z,85.60
2023-04-30T06:38:41.305Z,85.60
2023-04-30T06:41:09.069Z,86.50
2023-04-30T06:43:36.867Z,85.70
2023-04-30T06:46:05.074Z,85.20
2023-04-30T06:48:32.903Z,84.80
2023-04-30T06:51:00.490Z,84.70
2023-04-30T06:53:27.989Z,84.50
2023-04-30T06:55:55.832Z,84.50
2023-04-30T06:58:24.133Z,83.80
2023-04-30T07:00:52.383Z,83.70
2023-04-30T07:03:20.020Z,82.90
2023-04-30T07:05:47.883Z,83.10
2023-04-30T07:08:15.381Z,83.00
2023-04-30T07:10:42.909Z,82.40
2023-04-30T07:13:10.441Z,81.80
2023-04-30T07:15:38.422Z,81.40
2023-04-30T07:18:06.017Z,81.30
2023-04-30T07:20:33.671Z,81.60
2023-04-30T07:23:01.185Z,81.10
2023-04-30T07:25:28.669Z,81.20
2023-04-30T07:27:56.355Z,80.50
2023-04-30T07:30:25.208Z,79.40
2023-04-30T07:32:53.209Z,79.10
2023-04-30T07:35:20.756Z,78.50
2023-04-30T07:37:48.248Z,78.30
2023-04-30T07:40:25.013Z,77.10
2023-04-30T07:42:52.821Z,76.60
2023-04-30T07:45:20.450Z,76.40
2023-04-30T07:47:48.724Z,76.60
2023-04-30T07:50:17.148Z,76.40
2023-04-30T07:52:44.930Z,75.90
2023-04-30T07:55:12.986Z,75.80
2023-04-30T07:57:41.022Z,76.40
2023-04-30T08:00:09.467Z,76.30
2023-04-30T08:02:46.105Z,76.00
2023-04-30T08:05:13.811Z,76.30
2023-04-30T08:07:41.750Z,75.80
2023-04-30T08:10:09.566Z,74.80
2023-04-30T08:12:37.374Z,74.80
2023-04-30T08:15:07.362Z,73.70
2023-04-30T08:17:35.605Z,73.80
2023-04-30T08:20:07.309Z,73.40
2023-04-30T08:22:34.893Z,72.10
2023-04-30T08:25:02.684Z,70.80
2023-04-30T08:27:32.183Z,70.30
2023-04-30T08:29:59.710Z,68.90
2023-04-30T08:32:28.278Z,69.60
2023-04-30T08:34:56.023Z,69.70
2023-04-30T08:37:23.756Z,69.80
2023-04-30T08:39:51.273Z,69.90
2023-04-30T08:42:21.464Z,69.60
2023-04-30T08:44:49.003Z,68.40
2023-04-30T08:47:18.100Z,67.00
2023-04-30T08:49:46.222Z,66.80
2023-04-30T08:52:14.586Z,65.60
2023-04-30T08:54:44.193Z,65.20
2023-04-30T08:57:11.750Z,64.00
2023-04-30T08:59:39.361Z,63.00
2023-04-30T09:02:07.526Z,63.30
2023-04-30T09:04:35.205Z,63.30
2023-04-30T09:07:05.592Z,63.30
2023-04-30T09:09:40.813Z,62.60
2023-04-30T09:12:18.864Z,60.50
2023-04-30T09:15:05.136Z,60.90
2023-04-30T09:17:35.258Z,58.10
2023-04-30T09:20:13.632Z,60.90
2023-04-30T09:22:42.432Z,57.60
2023-04-30T09:25:11.402Z,58.50
2023-04-30T09:27:38.936Z,57.00
2023-04-30T09:30:08.730Z,57.80
2023-04-30T09:32:36.453Z,58.50
2023-04-30T09:35:04.764Z,58.30
2023-04-30T09:37:37.442Z,57.30
2023-04-30T09:40:05.685Z,56.40
2023-04-30T09:42:33.303Z,56.50
2023-04-30T09:45:00.858Z,56.50
2023-04-30T09:47:31.843Z,55.70
2023-04-30T09:50:00.428Z,54.80
2023-04-30T09:52:28.092Z,54.20
2023-04-30T09:54:55.558Z,54.40
2023-04-30T09:57:24.479Z,54.60
2023-04-30T09:59:54.028Z,52.60
2023-04-30T10:02:23.909Z,51.80
2023-04-30T10:04:57.989Z,53.50
2023-04-30T10:07:39.115Z,53.20
2023-04-30T10:10:10.962Z,54.20
2023-04-30T10:12:47.868Z,53.40
2023-04-30T10:15:25.745Z,52.00
2023-04-30T10:18:02.599Z,51.50
2023-04-30T10:20:34.989Z,51.20
2023-04-30T10:23:02.738Z,51.30
2023-04-30T10:25:31.487Z,52.00
2023-04-30T10:27:59.319Z,51.80
2023-04-30T10:30:27.410Z,51.50
2023-04-30T10:33:31.357Z,49.90
2023-04-30T10:36:06.605Z,48.30
2023-04-30T10:38:36.079Z,49.10
2023-04-30T10:41:07.735Z,51.40
2023-04-30T10:43:36.854Z,50.60
2023-04-30T10:46:04.702Z,50.30
2023-04-30T10:48:35.817Z,50.60
2023-04-30T10:51:04.248Z,50.40
2023-04-30T10:53:32.401Z,50.00
2023-04-30T10:56:08.230Z,49.10
2023-04-30T10:58:40.554Z,48.40
2023-04-30T11:01:17.269Z,49.50
2023-04-30T11:04:09.398Z,47.00
2023-04-30T11:07:02.278Z,45.60
2023-04-30T11:09:45.022Z,44.90
2023-04-30T11:12:28.470Z,45.60
2023-04-30T11:15:14.451Z,48.20
2023-04-30T11:17:50.489Z,46.70
2023-04-30T11:20:24.034Z,47.50
2023-04-30T11:23:19.643Z,45.80
2023-04-30T11:25:57.674Z,44.50
2023-04-30T11:28:27.418Z,46.00
2023-04-30T11:31:01.443Z,47.70
2023-04-30T11:33:33.690Z,46.10
2023-04-30T11:36:02.228Z,45.30
2023-04-30T11:38:35.002Z,45.40
2023-04-30T11:41:04.639Z,46.20
2023-04-30T11:43:34.516Z,45.40
2023-04-30T11:46:09.318Z,46.00
2023-04-30T11:48:47.194Z,45.70
2023-04-30T11:51:24.051Z,43.30
2023-04-30T11:53:53.376Z,44.50
2023-04-30T11:56:23.986Z,45.20
2023-04-30T11:58:57.730Z,44.80
2023-04-30T12:01:28.496Z,45.00
2023-04-30T12:03:57.573Z,45.00
2023-04-30T12:06:28.019Z,45.20
2023-04-30T12:08:56.473Z,45.50
2023-04-30T12:11:34.366Z,45.80
2023-04-30T12:14:07.468Z,46.20
2023-04-30T12:16:51.279Z,45.40
2023-04-30T12:19:25.016Z,42.80
2023-04-30T12:21:55.068Z,45.00
2023-04-30T12:24:26.993Z,45.20
2023-04-30T12:26:54.661Z,45.10
2023-04-30T12:29:22.997Z,45.30
2023-04-30T12:31:53.167Z,45.20
2023-04-30T12:34:20.768Z,45.10
2023-04-30T12:36:48.392Z,44.90
2023-04-30T12:39:16.584Z,44.50
2023-04-30T12:41:49.610Z,44.80
2023-04-30T12:44:29.026Z,44.80
2023-04-30T12:47:00.529Z,44.50
2023-04-30T12:49:34.369Z,45.00
2023-04-30T12:52:08.528Z,43.50
2023-04-30T12:54:38.008Z,43.40
2023-04-30T12:57:10.046Z,43.90
2023-04-30T13:00:00.789Z,43.80
2023-04-30T13:02:31.998Z,43.80
2023-04-30T13:04:59.973Z,44.00
2023-04-30T13:07:36.122Z,44.00
2023-04-30T13:10:03.934Z,43.70
2023-04-30T13:12:31.476Z,44.70
2023-04-30T13:14:58.952Z,44.10
2023-04-30T13:17:26.697Z,43.80
2023-04-30T13:19:54.441Z,42.00
2023-04-30T13:22:23.754Z,42.30
2023-04-30T13:24:51.513Z,42.90
2023-04-30T13:27:19.031Z,43.20
2023-04-30T13:29:46.674Z,43.80
2023-04-30T13:32:14.248Z,44.50
2023-04-30T13:34:41.867Z,44.50
2023-04-30T13:37:09.575Z,44.20
2023-04-30T13:39:37.210Z,44.00
2023-04-30T13:42:05.396Z,44.00
2023-04-30T13:44:33.757Z,43.40
2023-04-30T13:47:01.573Z,43.10
2023-04-30T13:49:29.195Z,42.70
2023-04-30T13:51:57.257Z,42.80
2023-04-30T13:54:24.740Z,43.40
2023-04-30T13:56:52.317Z,43.30
2023-04-30T13:59:19.943Z,42.60
2023-04-30T14:01:47.560Z,41.90
2023-04-30T14:04:15.253Z,40.80
2023-04-30T14:06:43.565Z,41.30
2023-04-30T14:09:11.740Z,40.80
2023-04-30T14:11:39.785Z,40.60
2023-04-30T14:14:08.916Z,41.30
2023-04-30T14:16:36.829Z,41.20
2023-04-30T14:19:04.884Z,41.30
2023-04-30T14:21:33.191Z,40.20
2023-04-30T14:24:00.743Z,40.50
2023-04-30T14:26:28.570Z,40.80
2023-04-30T14:28:57.253Z,40.80
2023-04-30T14:31:24.958Z,40.50
2023-04-30T14:33:52.558Z,40.30
2023-04-30T14:36:20.165Z,40.20
2023-04-30T14:38:47.725Z,40.30
2023-04-30T14:41:15.379Z,40.80
2023-04-30T14:43:42.956Z,40.40
2023-04-30T14:46:11.610Z,40.40
2023-04-30T14:48:39.421Z,40.50
2023-04-30T14:51:07.622Z,40.10
2023-04-30T14:53:37.759Z,41.00
2023-04-30T14:56:07.168Z,40.90
2023-04-30T14:58:34.911Z,41.00
2023-04-30T15:01:02.537Z,40.90
2023-04-30T15:03:31.055Z,41.00
2023-04-30T15:06:00.120Z,41.00
2023-04-30T15:08:27.720Z,40.00
2023-04-30T15:10:55.951Z,39.40
2023-04-30T15:13:23.512Z,39.90
2023-04-30T15:15:51.168Z,39.70
2023-04-30T15:18:18.788Z,39.20
2023-04-30T15:20:47.085Z,38.00
2023-04-30T15:23:14.883Z,38.60
2023-04-30T15:25:44.050Z,38.20
2023-04-30T15:28:11.606Z,38.20
2023-04-30T15:30:39.232Z,38.30
2023-04-30T15:33:06.898Z,38.30
2023-04-30T15:35:34.777Z,38.80
2023-04-30T15:38:02.294Z,39.00
2023-04-30T15:40:29.772Z,39.40
2023-04-30T15:42:57.273Z,39.50
2023-04-30T15:45:25.287Z,39.40
2023-04-30T15:47:52.930Z,39.40
2023-04-30T15:50:21.257Z,39.50
2023-04-30T15:52:48.833Z,39.40
2023-04-30T15:55:16.525Z,39.20
2023-04-30T15:57:44.204Z,39.40
2023-04-30T16:00:14.515Z,39.90
2023-04-30T16:02:42.372Z,40.00
2023-04-30T16:05:10.251Z,40.60
2023-04-30T16:07:38.090Z,40.70
2023-04-30T16:10:06.916Z,40.40
2023-04-30T16:12:34.455Z,40.50
2023-04-30T16:15:02.002Z,41.00
2023-04-30T16:17:31.049Z,41.00
2023-04-30T16:20:00.231Z,41.90
2023-04-30T16:22:28.520Z,42.00
2023-04-30T16:24:56.320Z,42.30
2023-04-30T16:27:24.199Z,42.70
2023-04-30T16:29:51.790Z,43.10
2023-04-30T16:32:19.417Z,43.30
2023-04-30T16:34:47.117Z,42.90
2023-04-30T16:37:15.535Z,42.30
2023-04-30T16:39:43.071Z,42.50
2023-04-30T16:42:11.336Z,42.80
2023-04-30T16:44:39.011Z,42.80
2023-04-30T16:47:06.917Z,44.30
2023-04-30T16:49:34.730Z,43.40
2023-04-30T16:52:02.372Z,43.80
2023-04-30T16:54:29.958Z,43.60
2023-04-30T16:56:57.744Z,43.50
2023-04-30T16:59:25.263Z,44.20
2023-04-30T17:01:56.357Z,44.40
2023-04-30T17:04:24.386Z,44.70
2023-04-30T17:06:52.455Z,44.70
2023-04-30T17:09:20.101Z,45.00
2023-04-30T17:11:47.653Z,45.10
2023-04-30T17:14:15.262Z,45.20
2023-04-30T17:16:43.780Z,45.10
2023-04-30T17:19:11.274Z,45.50
2023-04-30T17:21:38.853Z,45.60
2023-04-30T17:24:06.861Z,45.60
2023-04-30T17:26:34.400Z,45.90
2023-04-30T17:29:01.959Z,46.20
2023-04-30T17:31:30.884Z,46.60
2023-04-30T17:33:59.965Z,46.80
2023-04-30T17:36:30.271Z,47.20
2023-04-30T17:38:57.821Z,47.90
2023-04-30T17:41:26.234Z,48.50
2023-04-30T17:43:53.752Z,49.00
2023-04-30T17:46:22.385Z,49.50
2023-04-30T17:48:49.940Z,49.70
2023-04-30T17:51:18.357Z,49.70
2023-04-30T17:53:45.829Z,49.80
2023-04-30T17:56:13.491Z,49.70
2023-04-30T17:58:41.016Z,50.60
2023-04-30T18:01:08.689Z,50.70
2023-04-30T18:03:36.356Z,50.70
2023-04-30T18:06:04.176Z,51.00
2023-04-30T18:08:32.435Z,50.90
2023-04-30T18:10:59.966Z,51.00
2023-04-30T18:13:27.484Z,50.80
2023-04-30T18:15:55.430Z,50.80
2023-04-30T18:18:23.256Z,50.40
2023-04-30T18:20:51.879Z,50.40
2023-04-30T18:23:20.810Z,50.30
2023-04-30T18:25:49.038Z,50.20
2023-04-30T18:28:16.555Z,50.50
2023-04-30T18:30:45.045Z,50.70
2023-04-30T18:33:12.633Z,50.30
2023-04-30T18:35:40.250Z,50.60
2023-04-30T18:38:08.194Z,50.60
2023-04-30T18:40:35.722Z,50.40
2023-04-30T18:43:03.696Z,51.00
2023-04-30T18:45:31.251Z,51.10
2023-04-30T18:47:58.805Z,51.50
2023-04-30T18:50:26.455Z,51.40
2023-04-30T18:52:54.058Z,51.60
2023-04-30T18:55:21.722Z,51.70
2023-04-30T18:57:50.558Z,52.10
2023-04-30T19:00:18.138Z,52.30
2023-04-30T19:02:45.703Z,52.20
2023-04-30T19:05:14.167Z,52.20
2023-04-30T19:07:41.775Z,52.40
2023-04-30T19:10:09.606Z,52.70
2023-04-30T19:12:37.190Z,53.00
2023-04-30T19:15:07.870Z,53.80
2023-04-30T19:17:35.443Z,53.30
2023-04-30T19:20:03.755Z,53.40
2023-04-30T19:22:31.355Z,53.70
2023-04-30T19:24:58.819Z,53.90
2023-04-30T19:27:26.420Z,53.90
2023-04-30T19:29:54.514Z,54.10
2023-04-30T19:32:22.864Z,54.40
2023-04-30T19:34:51.893Z,54.50
2023-04-30T19:37:19.413Z,54.90
2023-04-30T19:39:46.928Z,54.70
2023-04-30T19:42:15.224Z,54.70
2023-04-30T19:44:42.768Z,54.60
2023-04-30T19:47:10.369Z,55.10
2023-04-30T19:49:37.935Z,54.60
2023-04-30T19:52:07.687Z,54.40
2023-04-30T19:54:35.605Z,54.50
2023-04-30T19:57:03.578Z,54.60
2023-04-30T19:59:31.333Z,54.60
2023-04-30T20:01:59.713Z,54.60
2023-04-30T20:04:27.322Z,54.50
2023-04-30T20:06:57.308Z,54.70
2023-04-30T20:09:24.956Z,54.80
2023-04-30T20:11:52.534Z,55.00
2023-04-30T20:14:21.293Z,55.20
2023-04-30T20:16:53.536Z,55.60
2023-04-30T20:19:22.267Z,55.60
2023-04-30T20:21:50.946Z,57.20
2023-04-30T20:24:19.054Z,58.10
2023-04-30T20:26:46.688Z,58.50
2023-04-30T20:29:14.399Z,58.60
2023-04-30T20:31:42.087Z,58.40
2023-04-30T20:34:09.647Z,58.50
2023-04-30T20:36:37.239Z,58.80
2023-04-30T20:39:04.757Z,59.00
2023-04-30T20:41:32.291Z,59.20
2023-04-30T20:44:00.551Z,59.50
2023-04-30T20:46:28.631Z,59.60
2023-04-30T20:49:02.381Z,59.80
2023-04-30T20:51:30.130Z,60.10
2023-04-30T20:53:57.642Z,60.50
2023-04-30T20:56:25.840Z,60.60
2023-04-30T20:58:54.454Z,60.80
2023-04-30T21:01:22.486Z,61.30
2023-04-30T21:03:50.107Z,61.40
2023-04-30T21:06:17.859Z,61.60
2023-04-30T21:08:46.454Z,61.90
2023-04-30T21:11:16.624Z,62.20
2023-04-30T21:13:44.134Z,62.20
2023-04-30T21:16:11.804Z,62.30
2023-04-30T21:18:39.339Z,62.40
2023-04-30T21:21:09.214Z,62.50
2023-04-30T21:23:37.377Z,62.70
2023-04-30T21:26:04.931Z,62.50
2023-04-30T21:28:33.804Z,62.60
2023-04-30T21:31:08.530Z,63.00
2023-04-30T21:33:36.990Z,64.20
2023-04-30T21:36:08.039Z,63.80
2023-04-30T21:38:36.492Z,64.80
2023-04-30T21:41:04.448Z,64.60
2023-04-30T21:43:32.007Z,65.10
2023-04-30T21:46:03.164Z,65.00
2023-04-30T21:48:30.755Z,65.20
2023-04-30T21:50:58.253Z,65.00
2023-04-30T21:53:26.159Z,65.00
2023-04-30T21:55:53.687Z,65.10
2023-04-30T21:58:21.250Z,65.20
2023-04-30T22:00:49.524Z,65.50
2023-04-30T22:03:17.193Z,65.50
2023-04-30T22:05:46.218Z,65.70
2023-04-30T22:08:13.699Z,65.40
2023-04-30T22:10:41.316Z,65.80
2023-04-30T22:13:08.797Z,65.70
2023-04-30T22:15:47.119Z,65.60
2023-04-30T22:18:15.599Z,65.80
2023-04-30T22:20:43.151Z,65.80
2023-04-30T22:23:10.795Z,66.00
2023-04-30T22:25:38.432Z,66.30
2023-04-30T22:28:06.000Z,66.30
2023-04-30T22:30:33.492Z,66.30
2023-04-30T22:33:01.029Z,66.40
2023-04-30T22:35:29.421Z,66.80
2023-04-30T22:37:56.969Z,66.60
2023-04-30T22:40:24.770Z,67.70
2023-04-30T22:42:52.329Z,67.00
2023-04-30T22:45:19.899Z,66.80
2023-04-30T22:47:47.794Z,67.10
2023-04-30T22:50:15.444Z,67.20
2023-04-30T22:52:42.970Z,67.10
2023-04-30T22:55:10.985Z,67.30
2023-04-30T22:57:38.613Z,67.40
2023-04-30T23:00:07.113Z,67.50
2023-04-30T23:02:34.704Z,67.80
2023-04-30T23:05:03.905Z,68.30
2023-04-30T23:07:31.962Z,68.50
2023-04-30T23:09:59.455Z,68.70
2023-04-30T23:12:27.515Z,68.80
2023-04-30T23:14:55.212Z,68.60
2023-04-30T23:17:23.271Z,68.60
2023-04-30T23:19:50.790Z,68.60
2023-04-30T23:22:18.297Z,68.50
2023-04-30T23:24:45.837Z,68.50
2023-04-30T23:27:13.332Z,68.70
2023-04-30T23:29:40.866Z,68.70
2023-04-30T23:32:08.760Z,68.60
2023-04-30T23:34:36.283Z,68.70
2023-04-30T23:37:03.867Z,68.60
2023-04-30T23:39:31.353Z,69.00
2023-04-30T23:41:58.922Z,68.80
2023-04-30T23:44:26.419Z,69.00
2023-04-30T23:46:55.822Z,69.20
2023-04-30T23:49:24.914Z,69.70
2023-04-30T23:51:53.083Z,69.90
2023-04-30T23:54:20.862Z,70.20
2023-04-30T23:56:48.361Z,70.70
2023-04-30T23:59:16.041Z,70.90
